sensor_id;sensor_type;location;lat;lon;timestamp;P1;durP1;ratioP1;P2;durP2;ratioP2
11473;SDS011;5793;52.238;13.438;2023-01-29T00:01:32;6.47;;;4.23;;
11473;SDS011;5793;52.238;13.438;2023-01-29T00:04:01;4.63;;;4.00;;
11473;SDS011;5793;52.238;13.438;2023-01-29T00:06:29;6.83;;;4.10;;
11473;SDS011;5793;52.238;13.438;2023-01-29T00:08:57;6.73;;;4.33;;
11473;SDS011;5793;52.238;13.438;2023-01-29T00:11:25;7.13;;;4.70;;
11473;SDS011;5793;52.238;13.438;2023-01-29T00:13:52;7.87;;;4.50;;
11473;SDS011;5793;52.238;13.438;2023-01-29T00:16:21;8.37;;;5.03;;
11473;SDS011;5793;52.238;13.438;2023-01-29T00:18:48;7.53;;;5.67;;
11473;SDS011;5793;52.238;13.438;2023-01-29T00:21:18;9.27;;;4.93;;
11473;SDS011;5793;52.238;13.438;2023-01-29T00:23:47;6.37;;;4.70;;
11473;SDS011;5793;52.238;13.438;2023-01-29T00:26:16;7.60;;;4.87;;
11473;SDS011;5793;52.238;13.438;2023-01-29T00:28:43;8.13;;;5.30;;
11473;SDS011;5793;52.238;13.438;2023-01-29T00:31:12;8.03;;;7.07;;
11473;SDS011;5793;52.238;13.438;2023-01-29T00:33:41;11.73;;;7.23;;
11473;SDS011;5793;52.238;13.438;2023-01-29T00:36:10;9.07;;;6.73;;
11473;SDS011;5793;52.238;13.438;2023-01-29T00:38:40;8.13;;;6.17;;
11473;SDS011;5793;52.238;13.438;2023-01-29T00:41:09;7.73;;;6.40;;
11473;SDS011;5793;52.238;13.438;2023-01-29T00:43:56;10.47;;;6.23;;
11473;SDS011;5793;52.238;13.438;2023-01-29T00:46:41;11.93;;;7.23;;
11473;SDS011;5793;52.238;13.438;2023-01-29T00:49:09;10.47;;;7.57;;
11473;SDS011;5793;52.238;13.438;2023-01-29T00:51:37;11.63;;;8.47;;
11473;SDS011;5793;52.238;13.438;2023-01-29T00:54:07;9.97;;;7.07;;
11473;SDS011;5793;52.238;13.438;2023-01-29T00:56:35;10.40;;;7.40;;
11473;SDS011;5793;52.238;13.438;2023-01-29T00:59:03;9.10;;;6.53;;
11473;SDS011;5793;52.238;13.438;2023-01-29T01:01:31;9.73;;;7.33;;
11473;SDS011;5793;52.238;13.438;2023-01-29T01:04:16;12.73;;;7.87;;
11473;SDS011;5793;52.238;13.438;2023-01-29T01:06:44;13.30;;;8.50;;
11473;SDS011;5793;52.238;13.438;2023-01-29T01:09:13;10.50;;;8.27;;
11473;SDS011;5793;52.238;13.438;2023-01-29T01:12:13;11.93;;;7.27;;
11473;SDS011;5793;52.238;13.438;2023-01-29T01:14:41;10.47;;;7.67;;
11473;SDS011;5793;52.238;13.438;2023-01-29T01:17:09;10.77;;;7.17;;
11473;SDS011;5793;52.238;13.438;2023-01-29T01:19:37;9.43;;;8.13;;
11473;SDS011;5793;52.238;13.438;2023-01-29T01:22:05;12.03;;;8.30;;
11473;SDS011;5793;52.238;13.438;2023-01-29T01:24:34;12.73;;;9.43;;
11473;SDS011;5793;52.238;13.438;2023-01-29T01:27:02;12.87;;;9.27;;
11473;SDS011;5793;52.238;13.438;2023-01-29T01:29:29;12.03;;;8.90;;
11473;SDS011;5793;52.238;13.438;2023-01-29T01:31:58;13.53;;;8.73;;
11473;SDS011;5793;52.238;13.438;2023-01-29T01:34:26;12.73;;;8.50;;
11473;SDS011;5793;52.238;13.438;2023-01-29T01:36:54;15.37;;;8.97;;
11473;SDS011;5793;52.238;13.438;2023-01-29T01:39:22;12.23;;;8.33;;
11473;SDS011;5793;52.238;13.438;2023-01-29T01:41:52;14.57;;;8.70;;
11473;SDS011;5793;52.238;13.438;2023-01-29T01:47:22;15.23;;;9.40;;
11473;SDS011;5793;52.238;13.438;2023-01-29T01:49:56;11.43;;;8.87;;
11473;SDS011;5793;52.238;13.438;2023-01-29T01:52:28;14.97;;;9.73;;
11473;SDS011;5793;52.238;13.438;2023-01-29T01:54:57;13.27;;;9.23;;
11473;SDS011;5793;52.238;13.438;2023-01-29T01:57:27;14.07;;;8.67;;
11473;SDS011;5793;52.238;13.438;2023-01-29T01:59:58;14.13;;;9.63;;
11473;SDS011;5793;52.238;13.438;2023-01-29T02:02:37;12.27;;;9.57;;
11473;SDS011;5793;52.238;13.438;2023-01-29T02:05:24;14.73;;;10.37;;
11473;SDS011;5793;52.238;13.438;2023-01-29T02:08:11;15.43;;;10.50;;
11473;SDS011;5793;52.238;13.438;2023-01-29T02:10:57;15.83;;;10.13;;
11473;SDS011;5793;52.238;13.438;2023-01-29T02:13:26;14.87;;;9.70;;
11473;SDS011;5793;52.238;13.438;2023-01-29T02:15:53;17.27;;;10.57;;
11473;SDS011;5793;52.238;13.438;2023-01-29T02:18:21;13.63;;;9.00;;
11473;SDS011;5793;52.238;13.438;2023-01-29T02:20:55;14.20;;;10.00;;
11473;SDS011;5793;52.238;13.438;2023-01-29T02:23:44;12.57;;;10.07;;
11473;SDS011;5793;52.238;13.438;2023-01-29T02:26:27;13.43;;;10.00;;
11473;SDS011;5793;52.238;13.438;2023-01-29T02:29:17;14.80;;;10.43;;
11473;SDS011;5793;52.238;13.438;2023-01-29T02:31:52;15.57;;;10.37;;
11473;SDS011;5793;52.238;13.438;2023-01-29T02:34:34;16.67;;;10.47;;
11473;SDS011;5793;52.238;13.438;2023-01-29T02:37:25;16.13;;;10.40;;
11473;SDS011;5793;52.238;13.438;2023-01-29T02:40:04;16.70;;;11.20;;
11473;SDS011;5793;52.238;13.438;2023-01-29T02:42:40;16.53;;;10.90;;
11473;SDS011;5793;52.238;13.438;2023-01-29T02:45:17;16.30;;;11.20;;
11473;SDS011;5793;52.238;13.438;2023-01-29T02:47:49;14.33;;;10.83;;
11473;SDS011;5793;52.238;13.438;2023-01-29T02:50:25;14.20;;;10.87;;
11473;SDS011;5793;52.238;13.438;2023-01-29T02:53:00;14.77;;;11.17;;
11473;SDS011;5793;52.238;13.438;2023-01-29T02:55:33;17.07;;;10.73;;
11473;SDS011;5793;52.238;13.438;2023-01-29T02:58:08;14.73;;;10.63;;
11473;SDS011;5793;52.238;13.438;2023-01-29T03:00:43;17.87;;;11.43;;
11473;SDS011;5793;52.238;13.438;2023-01-29T03:03:15;15.80;;;11.87;;
11473;SDS011;5793;52.238;13.438;2023-01-29T03:05:48;14.50;;;10.30;;
11473;SDS011;5793;52.238;13.438;2023-01-29T03:08:26;17.20;;;10.47;;
11473;SDS011;5793;52.238;13.438;2023-01-29T03:11:03;14.67;;;10.43;;
11473;SDS011;5793;52.238;13.438;2023-01-29T03:13:34;14.70;;;10.27;;
11473;SDS011;5793;52.238;13.438;2023-01-29T03:16:08;17.20;;;10.87;;
11473;SDS011;5793;52.238;13.438;2023-01-29T03:18:48;14.10;;;10.33;;
11473;SDS011;5793;52.238;13.438;2023-01-29T03:21:22;16.83;;;11.60;;
11473;SDS011;5793;52.238;13.438;2023-01-29T03:24:12;16.20;;;11.63;;
11473;SDS011;5793;52.238;13.438;2023-01-29T03:27:00;16.30;;;10.80;;
11473;SDS011;5793;52.238;13.438;2023-01-29T03:29:48;19.27;;;10.77;;
11473;SDS011;5793;52.238;13.438;2023-01-29T03:32:36;16.57;;;10.43;;
11473;SDS011;5793;52.238;13.438;2023-01-29T03:35:05;18.20;;;12.60;;
11473;SDS011;5793;52.238;13.438;2023-01-29T03:37:37;15.90;;;11.50;;
11473;SDS011;5793;52.238;13.438;2023-01-29T03:40:08;16.20;;;11.80;;
11473;SDS011;5793;52.238;13.438;2023-01-29T03:42:41;16.10;;;11.33;;
11473;SDS011;5793;52.238;13.438;2023-01-29T03:45:16;16.97;;;12.07;;
11473;SDS011;5793;52.238;13.438;2023-01-29T03:47:53;15.80;;;11.10;;
11473;SDS011;5793;52.238;13.438;2023-01-29T03:50:31;17.57;;;11.77;;
11473;SDS011;5793;52.238;13.438;2023-01-29T03:53:07;18.20;;;10.93;;
11473;SDS011;5793;52.238;13.438;2023-01-29T03:55:40;15.27;;;11.53;;
11473;SDS011;5793;52.238;13.438;2023-01-29T03:58:17;15.73;;;11.90;;
11473;SDS011;5793;52.238;13.438;2023-01-29T04:00:51;16.93;;;12.37;;
11473;SDS011;5793;52.238;13.438;2023-01-29T04:03:23;15.47;;;11.70;;
11473;SDS011;5793;52.238;13.438;2023-01-29T04:05:56;19.27;;;13.00;;
11473;SDS011;5793;52.238;13.438;2023-01-29T04:08:31;18.23;;;11.93;;
11473;SDS011;5793;52.238;13.438;2023-01-29T04:11:02;15.80;;;11.50;;
11473;SDS011;5793;52.238;13.438;2023-01-29T04:13:34;16.43;;;11.40;;
11473;SDS011;5793;52.238;13.438;2023-01-29T04:16:03;17.47;;;12.17;;
11473;SDS011;5793;52.238;13.438;2023-01-29T04:18:37;20.00;;;12.77;;
11473;SDS011;5793;52.238;13.438;2023-01-29T04:21:04;17.70;;;11.37;;
11473;SDS011;5793;52.238;13.438;2023-01-29T04:23:33;16.80;;;11.17;;
11473;SDS011;5793;52.238;13.438;2023-01-29T04:26:06;18.10;;;12.03;;
11473;SDS011;5793;52.238;13.438;2023-01-29T04:28:50;19.13;;;11.27;;
11473;SDS011;5793;52.238;13.438;2023-01-29T04:31:25;17.67;;;12.00;;
11473;SDS011;5793;52.238;13.438;2023-01-29T04:34:02;17.70;;;12.47;;
11473;SDS011;5793;52.238;13.438;2023-01-29T04:36:40;16.60;;;11.67;;
11473;SDS011;5793;52.238;13.438;2023-01-29T04:39:17;15.80;;;11.90;;
11473;SDS011;5793;52.238;13.438;2023-01-29T04:41:49;16.40;;;11.73;;
11473;SDS011;5793;52.238;13.438;2023-01-29T04:44:21;16.20;;;11.13;;
11473;SDS011;5793;52.238;13.438;2023-01-29T04:46:56;17.57;;;11.97;;
11473;SDS011;5793;52.238;13.438;2023-01-29T04:49:34;16.03;;;11.70;;
11473;SDS011;5793;52.238;13.438;2023-01-29T04:52:11;17.27;;;11.90;;
11473;SDS011;5793;52.238;13.438;2023-01-29T04:54:50;16.87;;;11.77;;
11473;SDS011;5793;52.238;13.438;2023-01-29T04:57:27;16.37;;;11.87;;
11473;SDS011;5793;52.238;13.438;2023-01-29T05:00:01;17.13;;;11.87;;
11473;SDS011;5793;52.238;13.438;2023-01-29T05:02:34;16.87;;;13.17;;
11473;SDS011;5793;52.238;13.438;2023-01-29T05:05:07;19.30;;;13.17;;
11473;SDS011;5793;52.238;13.438;2023-01-29T05:07:36;16.23;;;12.23;;
11473;SDS011;5793;52.238;13.438;2023-01-29T05:10:07;16.50;;;11.53;;
11473;SDS011;5793;52.238;13.438;2023-01-29T05:12:36;18.30;;;11.23;;
11473;SDS011;5793;52.238;13.438;2023-01-29T05:15:07;15.27;;;10.93;;
11473;SDS011;5793;52.238;13.438;2023-01-29T05:17:38;18.80;;;11.53;;
11473;SDS011;5793;52.238;13.438;2023-01-29T05:20:09;17.37;;;11.33;;
11473;SDS011;5793;52.238;13.438;2023-01-29T05:22:39;16.93;;;11.80;;
11473;SDS011;5793;52.238;13.438;2023-01-29T05:25:18;18.17;;;12.07;;
11473;SDS011;5793;52.238;13.438;2023-01-29T05:27:48;17.43;;;11.77;;
11473;SDS011;5793;52.238;13.438;2023-01-29T05:30:32;17.70;;;12.27;;
11473;SDS011;5793;52.238;13.438;2023-01-29T05:33:01;17.57;;;11.23;;
11473;SDS011;5793;52.238;13.438;2023-01-29T05:35:31;20.30;;;12.30;;
11473;SDS011;5793;52.238;13.438;2023-01-29T05:38:00;17.70;;;11.63;;
11473;SDS011;5793;52.238;13.438;2023-01-29T05:40:28;18.00;;;12.57;;
11473;SDS011;5793;52.238;13.438;2023-01-29T05:42:55;18.80;;;12.37;;
11473;SDS011;5793;52.238;13.438;2023-01-29T05:45:23;18.60;;;12.57;;
11473;SDS011;5793;52.238;13.438;2023-01-29T05:47:54;19.03;;;12.37;;
11473;SDS011;5793;52.238;13.438;2023-01-29T05:50:22;20.50;;;12.70;;
11473;SDS011;5793;52.238;13.438;2023-01-29T05:52:55;20.27;;;12.90;;
11473;SDS011;5793;52.238;13.438;2023-01-29T05:55:24;19.07;;;12.57;;
11473;SDS011;5793;52.238;13.438;2023-01-29T05:57:52;18.70;;;13.07;;
11473;SDS011;5793;52.238;13.438;2023-01-29T06:00:20;20.50;;;13.13;;
11473;SDS011;5793;52.238;13.438;2023-01-29T06:02:48;17.47;;;11.97;;
11473;SDS011;5793;52.238;13.438;2023-01-29T06:05:16;19.67;;;13.67;;
11473;SDS011;5793;52.238;13.438;2023-01-29T06:07:44;18.17;;;12.33;;
11473;SDS011;5793;52.238;13.438;2023-01-29T06:10:14;22.17;;;13.67;;
11473;SDS011;5793;52.238;13.438;2023-01-29T06:12:44;20.10;;;13.10;;
11473;SDS011;5793;52.238;13.438;2023-01-29T06:15:11;19.23;;;12.80;;
11473;SDS011;5793;52.238;13.438;2023-01-29T06:17:40;18.23;;;12.50;;
11473;SDS011;5793;52.238;13.438;2023-01-29T06:20:09;19.67;;;12.27;;
11473;SDS011;5793;52.238;13.438;2023-01-29T06:22:37;21.73;;;14.00;;
11473;SDS011;5793;52.238;13.438;2023-01-29T06:25:05;19.73;;;13.70;;
11473;SDS011;5793;52.238;13.438;2023-01-29T06:27:35;20.90;;;14.57;;
11473;SDS011;5793;52.238;13.438;2023-01-29T06:30:03;24.00;;;15.30;;
11473;SDS011;5793;52.238;13.438;2023-01-29T06:32:32;25.93;;;15.17;;
11473;SDS011;5793;52.238;13.438;2023-01-29T06:35:00;24.90;;;15.63;;
11473;SDS011;5793;52.238;13.438;2023-01-29T06:37:28;26.53;;;16.03;;
11473;SDS011;5793;52.238;13.438;2023-01-29T06:39:55;29.17;;;15.43;;
11473;SDS011;5793;52.238;13.438;2023-01-29T06:42:23;22.40;;;15.07;;
11473;SDS011;5793;52.238;13.438;2023-01-29T06:44:54;29.23;;;17.03;;
11473;SDS011;5793;52.238;13.438;2023-01-29T06:47:23;32.07;;;17.73;;
11473;SDS011;5793;52.238;13.438;2023-01-29T06:49:51;29.73;;;17.67;;
11473;SDS011;5793;52.238;13.438;2023-01-29T06:52:18;34.33;;;19.03;;
11473;SDS011;5793;52.238;13.438;2023-01-29T06:54:46;36.17;;;19.33;;
11473;SDS011;5793;52.238;13.438;2023-01-29T06:57:14;28.67;;;19.13;;
11473;SDS011;5793;52.238;13.438;2023-01-29T06:59:42;28.23;;;17.90;;
11473;SDS011;5793;52.238;13.438;2023-01-29T07:02:11;30.87;;;19.57;;
11473;SDS011;5793;52.238;13.438;2023-01-29T07:04:38;32.13;;;19.73;;
11473;SDS011;5793;52.238;13.438;2023-01-29T07:07:06;29.57;;;17.77;;
11473;SDS011;5793;52.238;13.438;2023-01-29T07:09:38;31.07;;;18.83;;
11473;SDS011;5793;52.238;13.438;2023-01-29T07:12:06;35.40;;;21.20;;
11473;SDS011;5793;52.238;13.438;2023-01-29T07:14:35;36.47;;;21.30;;
11473;SDS011;5793;52.238;13.438;2023-01-29T07:17:02;35.10;;;21.03;;
11473;SDS011;5793;52.238;13.438;2023-01-29T07:19:32;34.63;;;18.83;;
11473;SDS011;5793;52.238;13.438;2023-01-29T07:21:59;34.93;;;19.57;;
11473;SDS011;5793;52.238;13.438;2023-01-29T07:24:28;33.67;;;18.00;;
11473;SDS011;5793;52.238;13.438;2023-01-29T07:26:56;36.67;;;20.23;;
11473;SDS011;5793;52.238;13.438;2023-01-29T07:29:24;34.80;;;19.77;;
11473;SDS011;5793;52.238;13.438;2023-01-29T07:31:51;31.53;;;18.87;;
11473;SDS011;5793;52.238;13.438;2023-01-29T07:34:19;37.17;;;21.73;;
11473;SDS011;5793;52.238;13.438;2023-01-29T07:36:51;37.17;;;19.87;;
11473;SDS011;5793;52.238;13.438;2023-01-29T07:39:19;33.13;;;18.77;;
11473;SDS011;5793;52.238;13.438;2023-01-29T07:41:47;33.23;;;18.87;;
11473;SDS011;5793;52.238;13.438;2023-01-29T07:44:15;34.28;;;22.55;;
11473;SDS011;5793;52.238;13.438;2023-01-29T07:46:43;34.10;;;20.10;;
11473;SDS011;5793;52.238;13.438;2023-01-29T07:49:10;32.30;;;18.83;;
11473;SDS011;5793;52.238;13.438;2023-01-29T07:51:38;32.03;;;20.07;;
11473;SDS011;5793;52.238;13.438;2023-01-29T07:54:07;34.23;;;19.30;;
11473;SDS011;5793;52.238;13.438;2023-01-29T07:56:35;27.97;;;17.77;;
11473;SDS011;5793;52.238;13.438;2023-01-29T07:59:03;36.97;;;19.20;;
11473;SDS011;5793;52.238;13.438;2023-01-29T08:01:30;28.80;;;17.27;;
11473;SDS011;5793;52.238;13.438;2023-01-29T08:03:58;36.67;;;19.00;;
11473;SDS011;5793;52.238;13.438;2023-01-29T08:06:26;27.50;;;17.10;;
11473;SDS011;5793;52.238;13.438;2023-01-29T08:08:54;37.87;;;18.97;;
11473;SDS011;5793;52.238;13.438;2023-01-29T08:11:24;30.47;;;17.67;;
11473;SDS011;5793;52.238;13.438;2023-01-29T08:13:51;24.73;;;15.73;;
11473;SDS011;5793;52.238;13.438;2023-01-29T08:16:19;27.80;;;17.13;;
11473;SDS011;5793;52.238;13.438;2023-01-29T08:18:47;35.27;;;18.70;;
11473;SDS011;5793;52.238;13.438;2023-01-29T08:21:15;31.70;;;18.33;;
11473;SDS011;5793;52.238;13.438;2023-01-29T08:23:42;29.43;;;17.10;;
11473;SDS011;5793;52.238;13.438;2023-01-29T08:26:10;29.30;;;17.87;;
11473;SDS011;5793;52.238;13.438;2023-01-29T08:28:39;29.00;;;18.17;;
11473;SDS011;5793;52.238;13.438;2023-01-29T08:31:11;32.97;;;18.17;;
11473;SDS011;5793;52.238;13.438;2023-01-29T08:33:40;31.30;;;17.23;;
11473;SDS011;5793;52.238;13.438;2023-01-29T08:36:08;32.03;;;17.93;;
11473;SDS011;5793;52.238;13.438;2023-01-29T08:38:36;29.53;;;17.10;;
11473;SDS011;5793;52.238;13.438;2023-01-29T08:41:04;31.20;;;17.70;;
11473;SDS011;5793;52.238;13.438;2023-01-29T08:43:33;32.33;;;18.97;;
11473;SDS011;5793;52.238;13.438;2023-01-29T08:46:03;29.50;;;16.93;;
11473;SDS011;5793;52.238;13.438;2023-01-29T08:48:33;29.50;;;18.17;;
11473;SDS011;5793;52.238;13.438;2023-01-29T08:51:01;31.97;;;18.73;;
11473;SDS011;5793;52.238;13.438;2023-01-29T08:53:29;34.43;;;19.10;;
11473;SDS011;5793;52.238;13.438;2023-01-29T08:55:58;35.03;;;19.53;;
11473;SDS011;5793;52.238;13.438;2023-01-29T08:58:25;33.07;;;19.13;;
11473;SDS011;5793;52.238;13.438;2023-01-29T09:00:53;32.53;;;20.70;;
11473;SDS011;5793;52.238;13.438;2023-01-29T09:03:22;33.67;;;20.23;;
11473;SDS011;5793;52.238;13.438;2023-01-29T09:05:50;32.60;;;19.63;;
11473;SDS011;5793;52.238;13.438;2023-01-29T09:08:18;33.70;;;20.03;;
11473;SDS011;5793;52.238;13.438;2023-01-29T09:10:45;32.60;;;19.03;;
11473;SDS011;5793;52.238;13.438;2023-01-29T09:13:13;31.20;;;18.60;;
11473;SDS011;5793;52.238;13.438;2023-01-29T09:15:41;30.90;;;18.10;;
11473;SDS011;5793;52.238;13.438;2023-01-29T09:18:09;33.37;;;18.50;;
11473;SDS011;5793;52.238;13.438;2023-01-29T09:20:38;32.93;;;19.17;;
11473;SDS011;5793;52.238;13.438;2023-01-29T09:23:06;32.70;;;19.33;;
11473;SDS011;5793;52.238;13.438;2023-01-29T09:25:36;29.93;;;18.13;;
11473;SDS011;5793;52.238;13.438;2023-01-29T09:28:04;28.70;;;17.73;;
11473;SDS011;5793;52.238;13.438;2023-01-29T09:30:32;30.87;;;18.47;;
11473;SDS011;5793;52.238;13.438;2023-01-29T09:33:03;31.27;;;17.30;;
11473;SDS011;5793;52.238;13.438;2023-01-29T09:35:31;27.50;;;17.13;;
11473;SDS011;5793;52.238;13.438;2023-01-29T09:38:01;26.73;;;17.17;;
11473;SDS011;5793;52.238;13.438;2023-01-29T09:40:29;28.07;;;16.43;;
11473;SDS011;5793;52.238;13.438;2023-01-29T09:43:02;30.80;;;18.60;;
11473;SDS011;5793;52.238;13.438;2023-01-29T09:45:33;26.70;;;16.80;;
11473;SDS011;5793;52.238;13.438;2023-01-29T09:48:02;28.80;;;16.83;;
11473;SDS011;5793;52.238;13.438;2023-01-29T09:50:33;31.33;;;16.70;;
11473;SDS011;5793;52.238;13.438;2023-01-29T09:53:10;23.97;;;14.73;;
11473;SDS011;5793;52.238;13.438;2023-01-29T09:55:45;26.67;;;16.30;;
11473;SDS011;5793;52.238;13.438;2023-01-29T09:58:17;28.30;;;16.87;;
11473;SDS011;5793;52.238;13.438;2023-01-29T10:00:50;26.47;;;16.13;;
11473;SDS011;5793;52.238;13.438;2023-01-29T10:03:30;27.13;;;16.07;;
11473;SDS011;5793;52.238;13.438;2023-01-29T10:06:20;22.67;;;14.27;;
11473;SDS011;5793;52.238;13.438;2023-01-29T10:09:01;25.33;;;15.03;;
11473;SDS011;5793;52.238;13.438;2023-01-29T10:11:57;23.90;;;14.40;;
11473;SDS011;5793;52.238;13.438;2023-01-29T10:14:33;20.83;;;13.80;;
11473;SDS011;5793;52.238;13.438;2023-01-29T10:17:13;24.17;;;15.47;;
11473;SDS011;5793;52.238;13.438;2023-01-29T10:19:57;24.80;;;15.20;;
11473;SDS011;5793;52.238;13.438;2023-01-29T10:22:41;20.53;;;14.23;;
11473;SDS011;5793;52.238;13.438;2023-01-29T10:25:18;25.20;;;15.60;;
11473;SDS011;5793;52.238;13.438;2023-01-29T10:27:48;21.77;;;14.53;;
11473;SDS011;5793;52.238;13.438;2023-01-29T10:30:20;21.63;;;14.10;;
11473;SDS011;5793;52.238;13.438;2023-01-29T10:32:58;24.07;;;14.77;;
11473;SDS011;5793;52.238;13.438;2023-01-29T10:35:30;23.00;;;13.87;;
11473;SDS011;5793;52.238;13.438;2023-01-29T10:38:07;20.47;;;13.70;;
11473;SDS011;5793;52.238;13.438;2023-01-29T10:40:46;19.43;;;13.07;;
11473;SDS011;5793;52.238;13.438;2023-01-29T10:43:23;21.50;;;14.27;;
11473;SDS011;5793;52.238;13.438;2023-01-29T10:46:01;17.93;;;12.93;;
11473;SDS011;5793;52.238;13.438;2023-01-29T10:48:40;18.30;;;12.50;;
11473;SDS011;5793;52.238;13.438;2023-01-29T10:54:15;15.97;;;11.17;;
11473;SDS011;5793;52.238;13.438;2023-01-29T10:56:59;15.07;;;11.23;;
11473;SDS011;5793;52.238;13.438;2023-01-29T10:59:35;16.23;;;11.83;;
11473;SDS011;5793;52.238;13.438;2023-01-29T11:02:15;16.00;;;11.40;;
11473;SDS011;5793;52.238;13.438;2023-01-29T11:04:44;17.27;;;11.83;;
11473;SDS011;5793;52.238;13.438;2023-01-29T11:07:13;16.93;;;12.30;;
11473;SDS011;5793;52.238;13.438;2023-01-29T11:09:45;18.90;;;12.50;;
11473;SDS011;5793;52.238;13.438;2023-01-29T11:12:21;19.27;;;12.30;;
11473;SDS011;5793;52.238;13.438;2023-01-29T11:14:56;16.80;;;11.20;;
11473;SDS011;5793;52.238;13.438;2023-01-29T11:17:27;18.83;;;12.60;;
11473;SDS011;5793;52.238;13.438;2023-01-29T11:19:55;20.57;;;13.10;;
11473;SDS011;5793;52.238;13.438;2023-01-29T11:22:23;18.53;;;12.30;;
11473;SDS011;5793;52.238;13.438;2023-01-29T11:25:08;19.13;;;12.73;;
11473;SDS011;5793;52.238;13.438;2023-01-29T11:27:44;16.07;;;11.10;;
11473;SDS011;5793;52.238;13.438;2023-01-29T11:30:14;17.30;;;12.20;;
11473;SDS011;5793;52.238;13.438;2023-01-29T11:32:48;16.43;;;10.93;;
11473;SDS011;5793;52.238;13.438;2023-01-29T11:35:21;15.83;;;11.13;;
11473;SDS011;5793;52.238;13.438;2023-01-29T11:37:50;15.80;;;10.83;;
11473;SDS011;5793;52.238;13.438;2023-01-29T11:40:32;16.13;;;11.53;;
11473;SDS011;5793;52.238;13.438;2023-01-29T11:43:16;16.93;;;11.43;;
11473;SDS011;5793;52.238;13.438;2023-01-29T11:45:46;16.70;;;11.27;;
11473;SDS011;5793;52.238;13.438;2023-01-29T11:48:16;15.73;;;10.80;;
11473;SDS011;5793;52.238;13.438;2023-01-29T11:50:50;17.00;;;10.30;;
11473;SDS011;5793;52.238;13.438;2023-01-29T11:53:29;16.13;;;11.40;;
11473;SDS011;5793;52.238;13.438;2023-01-29T11:56:03;14.07;;;10.53;;
11473;SDS011;5793;52.238;13.438;2023-01-29T11:58:43;16.07;;;10.97;;
11473;SDS011;5793;52.238;13.438;2023-01-29T12:01:13;15.07;;;10.30;;
11473;SDS011;5793;52.238;13.438;2023-01-29T12:03:44;14.20;;;11.03;;
11473;SDS011;5793;52.238;13.438;2023-01-29T12:06:19;14.47;;;10.07;;
11473;SDS011;5793;52.238;13.438;2023-01-29T12:08:52;16.53;;;11.10;;
11473;SDS011;5793;52.238;13.438;2023-01-29T12:11:23;17.37;;;11.13;;
11473;SDS011;5793;52.238;13.438;2023-01-29T12:13:56;13.97;;;9.97;;
11473;SDS011;5793;52.238;13.438;2023-01-29T12:16:27;18.50;;;10.53;;
11473;SDS011;5793;52.238;13.438;2023-01-29T12:19:00;15.60;;;10.20;;
11473;SDS011;5793;52.238;13.438;2023-01-29T12:21:37;14.87;;;10.20;;
11473;SDS011;5793;52.238;13.438;2023-01-29T12:24:13;17.27;;;10.27;;
11473;SDS011;5793;52.238;13.438;2023-01-29T12:26:52;15.80;;;10.57;;
11473;SDS011;5793;52.238;13.438;2023-01-29T12:29:26;15.80;;;10.63;;
11473;SDS011;5793;52.238;13.438;2023-01-29T12:32:06;16.20;;;11.10;;
11473;SDS011;5793;52.238;13.438;2023-01-29T12:34:43;17.37;;;10.03;;
11473;SDS011;5793;52.238;13.438;2023-01-29T12:37:17;16.70;;;10.80;;
11473;SDS011;5793;52.238;13.438;2023-01-29T12:39:48;15.80;;;11.17;;
11473;SDS011;5793;52.238;13.438;2023-01-29T12:42:17;14.03;;;10.23;;
11473;SDS011;5793;52.238;13.438;2023-01-29T12:44:49;15.67;;;10.40;;
11473;SDS011;5793;52.238;13.438;2023-01-29T12:47:22;15.53;;;10.63;;
11473;SDS011;5793;52.238;13.438;2023-01-29T12:49:56;15.17;;;10.57;;
11473;SDS011;5793;52.238;13.438;2023-01-29T12:52:33;17.17;;;10.53;;
11473;SDS011;5793;52.238;13.438;2023-01-29T12:55:07;14.93;;;10.77;;
11473;SDS011;5793;52.238;13.438;2023-01-29T12:57:44;14.70;;;10.57;;
11473;SDS011;5793;52.238;13.438;2023-01-29T13:00:17;13.80;;;10.27;;
11473;SDS011;5793;52.238;13.438;2023-01-29T13:02:48;16.90;;;11.37;;
11473;SDS011;5793;52.238;13.438;2023-01-29T13:05:22;16.37;;;11.20;;
11473;SDS011;5793;52.238;13.438;2023-01-29T13:07:55;14.97;;;10.20;;
11473;SDS011;5793;52.238;13.438;2023-01-29T13:10:28;15.07;;;10.73;;
11473;SDS011;5793;52.238;13.438;2023-01-29T13:13:03;14.93;;;10.57;;
11473;SDS011;5793;52.238;13.438;2023-01-29T13:15:38;17.47;;;11.30;;
11473;SDS011;5793;52.238;13.438;2023-01-29T13:18:22;18.20;;;11.07;;
11473;SDS011;5793;52.238;13.438;2023-01-29T13:21:03;19.03;;;10.20;;
11473;SDS011;5793;52.238;13.438;2023-01-29T13:23:32;16.27;;;10.70;;
11473;SDS011;5793;52.238;13.438;2023-01-29T13:26:02;16.93;;;11.00;;
11473;SDS011;5793;52.238;13.438;2023-01-29T13:28:30;15.50;;;11.03;;
11473;SDS011;5793;52.238;13.438;2023-01-29T13:31:10;15.37;;;11.27;;
11473;SDS011;5793;52.238;13.438;2023-01-29T13:33:50;17.57;;;11.97;;
11473;SDS011;5793;52.238;13.438;2023-01-29T13:36:22;16.27;;;11.43;;
11473;SDS011;5793;52.238;13.438;2023-01-29T13:38:55;19.00;;;12.17;;
11473;SDS011;5793;52.238;13.438;2023-01-29T13:41:31;18.17;;;12.40;;
11473;SDS011;5793;52.238;13.438;2023-01-29T13:44:04;18.83;;;12.07;;
11473;SDS011;5793;52.238;13.438;2023-01-29T13:46:44;20.07;;;12.90;;
11473;SDS011;5793;52.238;13.438;2023-01-29T13:49:29;18.73;;;12.87;;
11473;SDS011;5793;52.238;13.438;2023-01-29T13:52:13;20.60;;;12.33;;
11473;SDS011;5793;52.238;13.438;2023-01-29T13:54:50;19.67;;;12.87;;
11473;SDS011;5793;52.238;13.438;2023-01-29T13:57:33;19.33;;;12.60;;
11473;SDS011;5793;52.238;13.438;2023-01-29T14:00:03;16.50;;;11.97;;
11473;SDS011;5793;52.238;13.438;2023-01-29T14:02:33;17.00;;;11.30;;
11473;SDS011;5793;52.238;13.438;2023-01-29T14:08:05;16.10;;;11.50;;
11473;SDS011;5793;52.238;13.438;2023-01-29T14:11:27;19.87;;;12.83;;
11473;SDS011;5793;52.238;13.438;2023-01-29T14:14:09;18.93;;;12.90;;
11473;SDS011;5793;52.238;13.438;2023-01-29T14:17:15;19.80;;;13.10;;
11473;SDS011;5793;52.238;13.438;2023-01-29T14:19:46;21.37;;;13.90;;
11473;SDS011;5793;52.238;13.438;2023-01-29T14:22:17;22.53;;;14.00;;
11473;SDS011;5793;52.238;13.438;2023-01-29T14:24:48;25.37;;;15.20;;
11473;SDS011;5793;52.238;13.438;2023-01-29T14:27:20;25.03;;;15.17;;
11473;SDS011;5793;52.238;13.438;2023-01-29T14:29:50;24.37;;;15.87;;
11473;SDS011;5793;52.238;13.438;2023-01-29T14:32:24;23.23;;;14.93;;
11473;SDS011;5793;52.238;13.438;2023-01-29T14:34:55;21.43;;;15.20;;
11473;SDS011;5793;52.238;13.438;2023-01-29T14:37:28;24.17;;;15.27;;
11473;SDS011;5793;52.238;13.438;2023-01-29T14:40:07;28.00;;;15.63;;
11473;SDS011;5793;52.238;13.438;2023-01-29T14:42:46;24.37;;;14.33;;
11473;SDS011;5793;52.238;13.438;2023-01-29T14:45:23;25.70;;;15.30;;
11473;SDS011;5793;52.238;13.438;2023-01-29T14:47:54;26.50;;;15.13;;
11473;SDS011;5793;52.238;13.438;2023-01-29T14:50:40;25.50;;;16.43;;
11473;SDS011;5793;52.238;13.438;2023-01-29T14:53:20;27.20;;;15.83;;
11473;SDS011;5793;52.238;13.438;2023-01-29T14:55:55;27.13;;;15.67;;
11473;SDS011;5793;52.238;13.438;2023-01-29T14:58:27;26.27;;;16.33;;
11473;SDS011;5793;52.238;13.438;2023-01-29T15:01:05;28.00;;;16.73;;
11473;SDS011;5793;52.238;13.438;2023-01-29T15:03:40;29.00;;;17.20;;
11473;SDS011;5793;52.238;13.438;2023-01-29T15:06:15;28.73;;;16.97;;